sensor_id;sensor_type;location;lat;lon;timestamp;P1;durP1;ratioP1;P2;durP2;ratioP2
12962;SDS011;6546;49.882;8.666;2023-05-07T00:01:31;2.40;;;1.90;;
12962;SDS011;6546;49.882;8.666;2023-05-07T00:03:59;2.43;;;1.90;;
12962;SDS011;6546;49.882;8.666;2023-05-07T00:06:26;5.20;;;1.90;;
12962;SDS011;6546;49.882;8.666;2023-05-07T00:08:54;2.07;;;1.87;;
12962;SDS011;6546;49.882;8.666;2023-05-07T00:11:20;2.10;;;1.80;;
12962;SDS011;6546;49.882;8.666;2023-05-07T00:13:47;2.83;;;2.33;;
12962;SDS011;6546;49.882;8.666;2023-05-07T00:16:13;3.97;;;2.10;;
12962;SDS011;6546;49.882;8.666;2023-05-07T00:18:40;2.20;;;2.00;;
12962;SDS011;6546;49.882;8.666;2023-05-07T00:21:08;3.80;;;2.30;;
12962;SDS011;6546;49.882;8.666;2023-05-07T00:23:35;3.13;;;2.33;;
12962;SDS011;6546;49.882;8.666;2023-05-07T00:26:01;2.97;;;2.10;;
12962;SDS011;6546;49.882;8.666;2023-05-07T00:28:28;4.70;;;2.10;;
12962;SDS011;6546;49.882;8.666;2023-05-07T00:30:54;2.20;;;1.97;;
12962;SDS011;6546;49.882;8.666;2023-05-07T00:33:21;2.40;;;2.03;;
12962;SDS011;6546;49.882;8.666;2023-05-07T00:35:48;2.30;;;2.07;;
12962;SDS011;6546;49.882;8.666;2023-05-07T00:38:16;4.33;;;2.90;;
12962;SDS011;6546;49.882;8.666;2023-05-07T00:40:43;3.20;;;2.40;;
12962;SDS011;6546;49.882;8.666;2023-05-07T00:43:10;4.50;;;2.30;;
12962;SDS011;6546;49.882;8.666;2023-05-07T00:45:37;2.40;;;2.20;;
12962;SDS011;6546;49.882;8.666;2023-05-07T00:48:04;2.40;;;2.20;;
12962;SDS011;6546;49.882;8.666;2023-05-07T00:50:31;2.83;;;2.00;;
12962;SDS011;6546;49.882;8.666;2023-05-07T00:52:58;4.63;;;2.60;;
12962;SDS011;6546;49.882;8.666;2023-05-07T00:55:27;3.47;;;2.30;;
12962;SDS011;6546;49.882;8.666;2023-05-07T00:57:54;2.40;;;2.20;;
12962;SDS011;6546;49.882;8.666;2023-05-07T01:00:21;2.63;;;2.23;;
12962;SDS011;6546;49.882;8.666;2023-05-07T01:02:49;3.40;;;2.63;;
12962;SDS011;6546;49.882;8.666;2023-05-07T01:05:16;2.57;;;2.37;;
12962;SDS011;6546;49.882;8.666;2023-05-07T01:07:45;3.40;;;2.00;;
12962;SDS011;6546;49.882;8.666;2023-05-07T01:10:12;2.70;;;2.10;;
12962;SDS011;6546;49.882;8.666;2023-05-07T01:12:41;4.20;;;2.40;;
12962;SDS011;6546;49.882;8.666;2023-05-07T01:15:10;4.30;;;2.50;;
12962;SDS011;6546;49.882;8.666;2023-05-07T01:17:38;2.43;;;2.23;;
12962;SDS011;6546;49.882;8.666;2023-05-07T01:20:07;4.07;;;3.20;;
12962;SDS011;6546;49.882;8.666;2023-05-07T01:22:36;4.47;;;3.07;;
12962;SDS011;6546;49.882;8.666;2023-05-07T01:25:05;3.97;;;2.70;;
12962;SDS011;6546;49.882;8.666;2023-05-07T01:27:33;3.70;;;2.80;;
12962;SDS011;6546;49.882;8.666;2023-05-07T01:30:00;5.07;;;2.93;;
12962;SDS011;6546;49.882;8.666;2023-05-07T01:32:29;5.13;;;2.60;;
12962;SDS011;6546;49.882;8.666;2023-05-07T01:35:02;4.03;;;2.90;;
12962;SDS011;6546;49.882;8.666;2023-05-07T01:37:31;4.70;;;2.83;;
12962;SDS011;6546;49.882;8.666;2023-05-07T01:39:59;4.50;;;2.93;;
12962;SDS011;6546;49.882;8.666;2023-05-07T01:42:27;3.33;;;3.03;;
12962;SDS011;6546;49.882;8.666;2023-05-07T01:44:55;5.03;;;3.20;;
12962;SDS011;6546;49.882;8.666;2023-05-07T01:47:22;3.43;;;3.00;;
12962;SDS011;6546;49.882;8.666;2023-05-07T01:49:49;3.50;;;3.20;;
12962;SDS011;6546;49.882;8.666;2023-05-07T01:52:16;3.70;;;3.30;;
12962;SDS011;6546;49.882;8.666;2023-05-07T01:54:43;3.30;;;3.00;;
12962;SDS011;6546;49.882;8.666;2023-05-07T01:57:10;3.93;;;3.30;;
12962;SDS011;6546;49.882;8.666;2023-05-07T01:59:37;3.63;;;3.20;;
12962;SDS011;6546;49.882;8.666;2023-05-07T02:02:03;3.23;;;3.00;;
12962;SDS011;6546;49.882;8.666;2023-05-07T02:04:30;3.50;;;3.20;;
12962;SDS011;6546;49.882;8.666;2023-05-07T02:06:57;4.13;;;3.23;;
12962;SDS011;6546;49.882;8.666;2023-05-07T02:09:23;3.50;;;3.20;;
12962;SDS011;6546;49.882;8.666;2023-05-07T02:11:50;4.10;;;3.37;;
12962;SDS011;6546;49.882;8.666;2023-05-07T02:14:18;3.60;;;3.10;;
12962;SDS011;6546;49.882;8.666;2023-05-07T02:16:45;3.60;;;2.90;;
12962;SDS011;6546;49.882;8.666;2023-05-07T02:19:11;5.33;;;3.20;;
12962;SDS011;6546;49.882;8.666;2023-05-07T02:21:38;4.87;;;3.40;;
12962;SDS011;6546;49.882;8.666;2023-05-07T02:24:05;3.97;;;3.57;;
12962;SDS011;6546;49.882;8.666;2023-05-07T02:26:31;3.63;;;3.33;;
12962;SDS011;6546;49.882;8.666;2023-05-07T02:28:59;4.03;;;3.70;;
12962;SDS011;6546;49.882;8.666;2023-05-07T02:31:26;3.73;;;3.43;;
12962;SDS011;6546;49.882;8.666;2023-05-07T02:33:53;3.90;;;3.50;;
12962;SDS011;6546;49.882;8.666;2023-05-07T02:36:19;4.17;;;3.70;;
12962;SDS011;6546;49.882;8.666;2023-05-07T02:38:46;4.30;;;3.30;;
12962;SDS011;6546;49.882;8.666;2023-05-07T02:41:12;4.13;;;3.57;;
12962;SDS011;6546;49.882;8.666;2023-05-07T02:43:39;6.23;;;3.60;;
12962;SDS011;6546;49.882;8.666;2023-05-07T02:46:06;3.63;;;3.20;;
12962;SDS011;6546;49.882;8.666;2023-05-07T02:48:35;3.83;;;2.93;;
12962;SDS011;6546;49.882;8.666;2023-05-07T02:51:02;4.60;;;3.47;;
12962;SDS011;6546;49.882;8.666;2023-05-07T02:53:30;3.97;;;3.23;;
12962;SDS011;6546;49.882;8.666;2023-05-07T02:55:57;3.40;;;3.07;;
12962;SDS011;6546;49.882;8.666;2023-05-07T02:58:24;3.67;;;3.33;;
12962;SDS011;6546;49.882;8.666;2023-05-07T03:00:52;3.43;;;2.83;;
12962;SDS011;6546;49.882;8.666;2023-05-07T03:03:19;3.10;;;2.87;;
12962;SDS011;6546;49.882;8.666;2023-05-07T03:05:47;3.40;;;3.03;;
12962;SDS011;6546;49.882;8.666;2023-05-07T03:08:14;4.47;;;3.30;;
12962;SDS011;6546;49.882;8.666;2023-05-07T03:10:40;3.43;;;3.10;;
12962;SDS011;6546;49.882;8.666;2023-05-07T03:13:07;3.20;;;2.87;;
12962;SDS011;6546;49.882;8.666;2023-05-07T03:15:33;3.57;;;3.00;;
12962;SDS011;6546;49.882;8.666;2023-05-07T03:18:00;5.73;;;3.10;;
12962;SDS011;6546;49.882;8.666;2023-05-07T03:20:26;3.30;;;3.00;;
12962;SDS011;6546;49.882;8.666;2023-05-07T03:22:54;2.93;;;2.63;;
12962;SDS011;6546;49.882;8.666;2023-05-07T03:25:21;3.00;;;2.80;;
12962;SDS011;6546;49.882;8.666;2023-05-07T03:27:47;5.63;;;2.80;;
12962;SDS011;6546;49.882;8.666;2023-05-07T03:30:14;4.73;;;2.67;;
12962;SDS011;6546;49.882;8.666;2023-05-07T03:32:41;2.87;;;2.67;;
12962;SDS011;6546;49.882;8.666;2023-05-07T03:35:07;3.70;;;2.40;;
12962;SDS011;6546;49.882;8.666;2023-05-07T03:37:34;3.20;;;2.70;;
12962;SDS011;6546;49.882;8.666;2023-05-07T03:40:03;5.00;;;2.50;;
12962;SDS011;6546;49.882;8.666;2023-05-07T03:42:30;2.87;;;2.50;;
12962;SDS011;6546;49.882;8.666;2023-05-07T03:44:57;2.97;;;2.50;;
12962;SDS011;6546;49.882;8.666;2023-05-07T03:47:23;5.00;;;3.00;;
12962;SDS011;6546;49.882;8.666;2023-05-07T03:49:50;3.53;;;2.70;;
12962;SDS011;6546;49.882;8.666;2023-05-07T03:52:18;2.90;;;2.33;;
12962;SDS011;6546;49.882;8.666;2023-05-07T03:54:50;2.80;;;2.60;;
12962;SDS011;6546;49.882;8.666;2023-05-07T03:57:18;4.43;;;2.53;;
12962;SDS011;6546;49.882;8.666;2023-05-07T03:59:45;2.57;;;2.37;;
12962;SDS011;6546;49.882;8.666;2023-05-07T04:02:12;3.90;;;2.90;;
12962;SDS011;6546;49.882;8.666;2023-05-07T04:04:38;3.60;;;2.80;;
12962;SDS011;6546;49.882;8.666;2023-05-07T04:07:05;4.47;;;2.40;;
12962;SDS011;6546;49.882;8.666;2023-05-07T04:09:32;4.23;;;3.17;;
12962;SDS011;6546;49.882;8.666;2023-05-07T04:11:58;3.23;;;2.67;;
12962;SDS011;6546;49.882;8.666;2023-05-07T04:14:27;2.60;;;2.40;;
12962;SDS011;6546;49.882;8.666;2023-05-07T04:16:55;3.40;;;2.63;;
12962;SDS011;6546;49.882;8.666;2023-05-07T04:19:22;2.97;;;2.37;;
12962;SDS011;6546;49.882;8.666;2023-05-07T04:21:48;3.10;;;2.67;;
12962;SDS011;6546;49.882;8.666;2023-05-07T04:24:15;2.83;;;2.50;;
12962;SDS011;6546;49.882;8.666;2023-05-07T04:26:41;3.37;;;2.53;;
12962;SDS011;6546;49.882;8.666;2023-05-07T04:29:08;2.97;;;2.47;;
12962;SDS011;6546;49.882;8.666;2023-05-07T04:31:36;4.20;;;2.80;;
12962;SDS011;6546;49.882;8.666;2023-05-07T04:34:02;3.20;;;2.60;;
12962;SDS011;6546;49.882;8.666;2023-05-07T04:36:29;2.70;;;2.50;;
12962;SDS011;6546;49.882;8.666;2023-05-07T04:38:58;4.03;;;2.53;;
12962;SDS011;6546;49.882;8.666;2023-05-07T04:41:24;3.53;;;2.77;;
12962;SDS011;6546;49.882;8.666;2023-05-07T04:43:51;4.00;;;2.83;;
12962;SDS011;6546;49.882;8.666;2023-05-07T04:46:18;2.63;;;2.43;;
12962;SDS011;6546;49.882;8.666;2023-05-07T04:48:46;4.30;;;2.90;;
12962;SDS011;6546;49.882;8.666;2023-05-07T04:51:12;6.10;;;2.87;;
12962;SDS011;6546;49.882;8.666;2023-05-07T04:53:39;4.77;;;3.03;;
12962;SDS011;6546;49.882;8.666;2023-05-07T04:56:05;3.53;;;3.23;;
12962;SDS011;6546;49.882;8.666;2023-05-07T04:58:32;3.80;;;2.70;;
12962;SDS011;6546;49.882;8.666;2023-05-07T05:00:59;4.47;;;3.00;;
12962;SDS011;6546;49.882;8.666;2023-05-07T05:03:27;5.00;;;2.73;;
12962;SDS011;6546;49.882;8.666;2023-05-07T05:05:54;3.90;;;2.93;;
12962;SDS011;6546;49.882;8.666;2023-05-07T05:08:24;3.30;;;3.00;;
12962;SDS011;6546;49.882;8.666;2023-05-07T05:10:51;2.97;;;2.53;;
12962;SDS011;6546;49.882;8.666;2023-05-07T05:13:17;3.20;;;2.90;;
12962;SDS011;6546;49.882;8.666;2023-05-07T05:15:44;4.53;;;3.07;;
12962;SDS011;6546;49.882;8.666;2023-05-07T05:18:16;3.83;;;2.80;;
12962;SDS011;6546;49.882;8.666;2023-05-07T05:20:43;3.93;;;2.70;;
12962;SDS011;6546;49.882;8.666;2023-05-07T05:23:11;4.43;;;2.83;;
12962;SDS011;6546;49.882;8.666;2023-05-07T05:25:37;3.73;;;3.03;;
12962;SDS011;6546;49.882;8.666;2023-05-07T05:28:05;2.70;;;2.50;;
12962;SDS011;6546;49.882;8.666;2023-05-07T05:30:31;3.10;;;2.80;;
12962;SDS011;6546;49.882;8.666;2023-05-07T05:32:58;2.87;;;2.67;;
12962;SDS011;6546;49.882;8.666;2023-05-07T05:35:25;2.97;;;2.67;;
12962;SDS011;6546;49.882;8.666;2023-05-07T05:37:51;4.13;;;2.60;;
12962;SDS011;6546;49.882;8.666;2023-05-07T05:40:19;4.57;;;2.57;;
12962;SDS011;6546;49.882;8.666;2023-05-07T05:42:46;3.77;;;2.30;;
12962;SDS011;6546;49.882;8.666;2023-05-07T05:45:13;2.60;;;2.40;;
12962;SDS011;6546;49.882;8.666;2023-05-07T05:47:40;2.80;;;2.20;;
12962;SDS011;6546;49.882;8.666;2023-05-07T05:50:10;3.03;;;2.60;;
12962;SDS011;6546;49.882;8.666;2023-05-07T05:52:36;2.73;;;2.53;;
12962;SDS011;6546;49.882;8.666;2023-05-07T05:55:03;8.83;;;2.63;;
12962;SDS011;6546;49.882;8.666;2023-05-07T05:57:31;3.20;;;2.43;;
12962;SDS011;6546;49.882;8.666;2023-05-07T05:59:58;2.53;;;2.33;;
12962;SDS011;6546;49.882;8.666;2023-05-07T06:02:25;3.30;;;2.50;;
12962;SDS011;6546;49.882;8.666;2023-05-07T06:04:51;3.70;;;2.47;;
12962;SDS011;6546;49.882;8.666;2023-05-07T06:07:18;3.07;;;2.77;;
12962;SDS011;6546;49.882;8.666;2023-05-07T06:09:44;3.93;;;2.70;;
12962;SDS011;6546;49.882;8.666;2023-05-07T06:12:11;3.03;;;2.10;;
12962;SDS011;6546;49.882;8.666;2023-05-07T06:14:39;2.73;;;2.20;;
12962;SDS011;6546;49.882;8.666;2023-05-07T06:17:06;3.50;;;2.20;;
12962;SDS011;6546;49.882;8.666;2023-05-07T06:19:33;2.50;;;2.30;;
12962;SDS011;6546;49.882;8.666;2023-05-07T06:22:00;3.60;;;2.00;;
12962;SDS011;6546;49.882;8.666;2023-05-07T06:24:27;3.20;;;2.33;;
12962;SDS011;6546;49.882;8.666;2023-05-07T06:26:54;2.43;;;2.07;;
12962;SDS011;6546;49.882;8.666;2023-05-07T06:29:20;3.87;;;2.60;;
12962;SDS011;6546;49.882;8.666;2023-05-07T06:31:48;2.60;;;2.40;;
12962;SDS011;6546;49.882;8.666;2023-05-07T06:34:15;4.17;;;2.37;;
12962;SDS011;6546;49.882;8.666;2023-05-07T06:36:41;2.43;;;2.27;;
12962;SDS011;6546;49.882;8.666;2023-05-07T06:39:08;3.10;;;2.40;;
12962;SDS011;6546;49.882;8.666;2023-05-07T06:41:34;3.00;;;2.70;;
12962;SDS011;6546;49.882;8.666;2023-05-07T06:44:01;4.03;;;2.77;;
12962;SDS011;6546;49.882;8.666;2023-05-07T06:46:28;3.00;;;2.40;;
12962;SDS011;6546;49.882;8.666;2023-05-07T06:48:56;2.67;;;2.47;;
12962;SDS011;6546;49.882;8.666;2023-05-07T06:51:23;2.83;;;2.63;;
12962;SDS011;6546;49.882;8.666;2023-05-07T06:53:50;2.80;;;2.50;;
12962;SDS011;6546;49.882;8.666;2023-05-07T06:56:16;2.50;;;2.30;;
12962;SDS011;6546;49.882;8.666;2023-05-07T06:58:43;2.40;;;2.20;;
12962;SDS011;6546;49.882;8.666;2023-05-07T07:01:10;3.07;;;2.77;;
12962;SDS011;6546;49.882;8.666;2023-05-07T07:03:36;3.30;;;2.97;;
12962;SDS011;6546;49.882;8.666;2023-05-07T07:06:04;3.63;;;2.70;;
12962;SDS011;6546;49.882;8.666;2023-05-07T07:08:31;4.83;;;3.00;;
12962;SDS011;6546;49.882;8.666;2023-05-07T07:10:58;3.10;;;2.80;;
12962;SDS011;6546;49.882;8.666;2023-05-07T07:13:24;3.40;;;2.80;;
12962;SDS011;6546;49.882;8.666;2023-05-07T07:15:51;3.33;;;3.03;;
12962;SDS011;6546;49.882;8.666;2023-05-07T07:18:18;3.30;;;2.80;;
12962;SDS011;6546;49.882;8.666;2023-05-07T07:20:45;3.70;;;3.00;;
12962;SDS011;6546;49.882;8.666;2023-05-07T07:23:13;5.60;;;2.70;;
12962;SDS011;6546;49.882;8.666;2023-05-07T07:25:40;3.20;;;2.90;;
12962;SDS011;6546;49.882;8.666;2023-05-07T07:28:06;2.83;;;2.53;;
12962;SDS011;6546;49.882;8.666;2023-05-07T07:30:33;4.13;;;2.77;;
12962;SDS011;6546;49.882;8.666;2023-05-07T07:32:59;3.00;;;2.70;;
12962;SDS011;6546;49.882;8.666;2023-05-07T07:35:28;3.20;;;2.90;;
12962;SDS011;6546;49.882;8.666;2023-05-07T07:37:54;4.33;;;3.20;;
12962;SDS011;6546;49.882;8.666;2023-05-07T07:40:22;3.20;;;2.90;;
12962;SDS011;6546;49.882;8.666;2023-05-07T07:42:49;5.33;;;2.90;;
12962;SDS011;6546;49.882;8.666;2023-05-07T07:45:16;3.53;;;3.23;;
12962;SDS011;6546;49.882;8.666;2023-05-07T07:47:46;4.43;;;3.30;;
12962;SDS011;6546;49.882;8.666;2023-05-07T07:50:12;5.43;;;2.60;;
12962;SDS011;6546;49.882;8.666;2023-05-07T07:52:42;3.40;;;2.73;;
12962;SDS011;6546;49.882;8.666;2023-05-07T07:55:09;3.30;;;3.10;;
12962;SDS011;6546;49.882;8.666;2023-05-07T07:57:37;3.33;;;3.03;;
12962;SDS011;6546;49.882;8.666;2023-05-07T08:00:04;4.27;;;2.77;;
12962;SDS011;6546;49.882;8.666;2023-05-07T08:02:32;4.87;;;3.37;;
12962;SDS011;6546;49.882;8.666;2023-05-07T08:04:58;4.17;;;3.30;;
12962;SDS011;6546;49.882;8.666;2023-05-07T08:07:25;3.93;;;3.03;;
12962;SDS011;6546;49.882;8.666;2023-05-07T08:09:51;3.37;;;3.00;;
12962;SDS011;6546;49.882;8.666;2023-05-07T08:12:18;3.20;;;2.73;;
12962;SDS011;6546;49.882;8.666;2023-05-07T08:14:46;4.37;;;3.30;;
12962;SDS011;6546;49.882;8.666;2023-05-07T08:17:12;3.87;;;2.87;;
12962;SDS011;6546;49.882;8.666;2023-05-07T08:19:41;3.27;;;3.00;;
12962;SDS011;6546;49.882;8.666;2023-05-07T08:22:07;3.70;;;3.40;;
12962;SDS011;6546;49.882;8.666;2023-05-07T08:24:34;3.90;;;3.30;;
12962;SDS011;6546;49.882;8.666;2023-05-07T08:27:00;3.27;;;2.97;;
12962;SDS011;6546;49.882;8.666;2023-05-07T08:29:27;3.43;;;3.13;;
12962;SDS011;6546;49.882;8.666;2023-05-07T08:31:55;3.47;;;2.70;;
12962;SDS011;6546;49.882;8.666;2023-05-07T08:34:24;4.00;;;3.10;;
12962;SDS011;6546;49.882;8.666;2023-05-07T08:36:53;3.30;;;3.00;;
12962;SDS011;6546;49.882;8.666;2023-05-07T08:39:20;4.03;;;3.30;;
12962;SDS011;6546;49.882;8.666;2023-05-07T08:41:46;3.60;;;3.30;;
12962;SDS011;6546;49.882;8.666;2023-05-07T08:44:14;3.50;;;3.20;;
12962;SDS011;6546;49.882;8.666;2023-05-07T08:46:45;3.30;;;3.00;;
12962;SDS011;6546;49.882;8.666;2023-05-07T08:49:14;4.20;;;3.40;;
12962;SDS011;6546;49.882;8.666;2023-05-07T08:51:41;3.50;;;3.20;;
12962;SDS011;6546;49.882;8.666;2023-05-07T08:54:08;3.27;;;3.00;;
12962;SDS011;6546;49.882;8.666;2023-05-07T08:56:37;5.43;;;3.17;;
12962;SDS011;6546;49.882;8.666;2023-05-07T08:59:05;3.33;;;3.03;;
12962;SDS011;6546;49.882;8.666;2023-05-07T09:01:31;4.23;;;3.50;;
12962;SDS011;6546;49.882;8.666;2023-05-07T09:04:00;3.20;;;3.00;;
12962;SDS011;6546;49.882;8.666;2023-05-07T09:06:28;4.37;;;3.83;;
12962;SDS011;6546;49.882;8.666;2023-05-07T09:08:55;3.73;;;3.33;;
12962;SDS011;6546;49.882;8.666;2023-05-07T09:11:26;4.80;;;3.33;;
12962;SDS011;6546;49.882;8.666;2023-05-07T09:13:53;3.63;;;3.30;;
12962;SDS011;6546;49.882;8.666;2023-05-07T09:16:20;3.50;;;3.17;;
12962;SDS011;6546;49.882;8.666;2023-05-07T09:18:48;6.20;;;3.50;;
12962;SDS011;6546;49.882;8.666;2023-05-07T09:21:17;3.90;;;3.60;;
12962;SDS011;6546;49.882;8.666;2023-05-07T09:23:46;5.90;;;3.43;;
12962;SDS011;6546;49.882;8.666;2023-05-07T09:26:14;4.10;;;3.80;;
12962;SDS011;6546;49.882;8.666;2023-05-07T09:28:40;4.10;;;3.80;;
12962;SDS011;6546;49.882;8.666;2023-05-07T09:31:07;4.70;;;3.80;;
12962;SDS011;6546;49.882;8.666;2023-05-07T09:33:34;3.90;;;3.50;;
12962;SDS011;6546;49.882;8.666;2023-05-07T09:36:03;3.77;;;3.20;;
12962;SDS011;6546;49.882;8.666;2023-05-07T09:38:31;3.80;;;3.50;;
12962;SDS011;6546;49.882;8.666;2023-05-07T09:41:02;3.63;;;3.33;;
12962;SDS011;6546;49.882;8.666;2023-05-07T09:43:34;4.03;;;3.47;;
12962;SDS011;6546;49.882;8.666;2023-05-07T09:46:02;4.57;;;3.97;;
12962;SDS011;6546;49.882;8.666;2023-05-07T09:48:29;3.73;;;3.47;;
12962;SDS011;6546;49.882;8.666;2023-05-07T09:50:56;3.67;;;3.20;;
12962;SDS011;6546;49.882;8.666;2023-05-07T09:53:28;4.43;;;3.37;;
12962;SDS011;6546;49.882;8.666;2023-05-07T09:55:56;3.77;;;3.47;;
12962;SDS011;6546;49.882;8.666;2023-05-07T09:58:26;4.13;;;3.60;;
12962;SDS011;6546;49.882;8.666;2023-05-07T10:00:53;3.50;;;3.20;;
12962;SDS011;6546;49.882;8.666;2023-05-07T10:03:22;3.80;;;3.50;;
12962;SDS011;6546;49.882;8.666;2023-05-07T10:05:52;4.23;;;3.83;;
12962;SDS011;6546;49.882;8.666;2023-05-07T10:08:19;4.27;;;3.87;;
12962;SDS011;6546;49.882;8.666;2023-05-07T10:10:46;3.83;;;3.27;;
12962;SDS011;6546;49.882;8.666;2023-05-07T10:13:14;4.20;;;3.60;;
12962;SDS011;6546;49.882;8.666;2023-05-07T10:15:44;4.47;;;3.50;;
12962;SDS011;6546;49.882;8.666;2023-05-07T10:18:10;4.47;;;3.73;;
12962;SDS011;6546;49.882;8.666;2023-05-07T10:20:38;4.13;;;3.83;;
12962;SDS011;6546;49.882;8.666;2023-05-07T10:23:09;3.97;;;3.37;;
12962;SDS011;6546;49.882;8.666;2023-05-07T10:25:40;4.23;;;3.70;;
12962;SDS011;6546;49.882;8.666;2023-05-07T10:28:08;4.17;;;3.43;;
12962;SDS011;6546;49.882;8.666;2023-05-07T10:30:38;3.67;;;3.37;;
12962;SDS011;6546;49.882;8.666;2023-05-07T10:33:15;3.40;;;3.10;;
12962;SDS011;6546;49.882;8.666;2023-05-07T10:35:46;5.00;;;3.43;;
12962;SDS011;6546;49.882;8.666;2023-05-07T11:31:51;3.37;;;2.97;;
12962;SDS011;6546;49.882;8.666;2023-05-07T12:11:23;3.60;;;2.47;;
12962;SDS011;6546;49.882;8.666;2023-05-07T12:13:50;4.10;;;2.70;;
12962;SDS011;6546;49.882;8.666;2023-05-07T12:16:17;3.30;;;2.90;;
12962;SDS011;6546;49.882;8.666;2023-05-07T12:18:45;5.17;;;2.93;;
12962;SDS011;6546;49.882;8.666;2023-05-07T12:21:12;3.63;;;3.30;;
12962;SDS011;6546;49.882;8.666;2023-05-07T12:23:40;3.13;;;2.83;;
12962;SDS011;6546;49.882;8.666;2023-05-07T12:26:06;2.90;;;2.70;;
12962;SDS011;6546;49.882;8.666;2023-05-07T12:28:39;3.50;;;3.20;;
12962;SDS011;6546;49.882;8.666;2023-05-07T12:31:06;4.93;;;2.40;;
12962;SDS011;6546;49.882;8.666;2023-05-07T12:33:33;2.37;;;2.20;;
12962;SDS011;6546;49.882;8.666;2023-05-07T12:36:02;2.87;;;2.67;;
12962;SDS011;6546;49.882;8.666;2023-05-07T12:38:35;2.90;;;2.70;;
12962;SDS011;6546;49.882;8.666;2023-05-07T12:41:03;3.90;;;2.10;;
12962;SDS011;6546;49.882;8.666;2023-05-07T12:43:30;2.67;;;2.47;;
12962;SDS011;6546;49.882;8.666;2023-05-07T12:45:59;2.70;;;2.10;;
12962;SDS011;6546;49.882;8.666;2023-05-07T12:48:27;6.10;;;2.60;;
12962;SDS011;6546;49.882;8.666;2023-05-07T12:50:53;2.57;;;2.37;;
12962;SDS011;6546;49.882;8.666;2023-05-07T12:53:21;2.87;;;2.60;;
12962;SDS011;6546;49.882;8.666;2023-05-07T12:55:51;2.33;;;2.13;;
12962;SDS011;6546;49.882;8.666;2023-05-07T12:58:19;2.80;;;2.50;;
12962;SDS011;6546;49.882;8.666;2023-05-07T13:00:48;2.57;;;2.37;;
12962;SDS011;6546;49.882;8.666;2023-05-07T13:03:25;3.00;;;2.70;;
12962;SDS011;6546;49.882;8.666;2023-05-07T13:05:54;2.78;;;2.58;;
12962;SDS011;6546;49.882;8.666;2023-05-07T13:08:24;2.40;;;2.20;;
12962;SDS011;6546;49.882;8.666;2023-05-07T13:10:52;2.20;;;2.10;;
12962;SDS011;6546;49.882;8.666;2023-05-07T13:13:19;2.27;;;2.10;;
12962;SDS011;6546;49.882;8.666;2023-05-07T13:15:46;4.67;;;2.30;;
12962;SDS011;6546;49.882;8.666;2023-05-07T13:18:12;2.53;;;2.33;;
12962;SDS011;6546;49.882;8.666;2023-05-07T13:20:40;2.50;;;2.30;;
12962;SDS011;6546;49.882;8.666;2023-05-07T13:23:07;2.80;;;2.60;;
12962;SDS011;6546;49.882;8.666;2023-05-07T13:25:33;3.17;;;2.30;;
12962;SDS011;6546;49.882;8.666;2023-05-07T13:28:00;2.40;;;2.20;;
12962;SDS011;6546;49.882;8.666;2023-05-07T13:30:27;2.43;;;2.23;;
12962;SDS011;6546;49.882;8.666;2023-05-07T13:32:55;2.78;;;2.58;;
12962;SDS011;6546;49.882;8.666;2023-05-07T13:35:22;2.87;;;2.40;;
12962;SDS011;6546;49.882;8.666;2023-05-07T13:37:50;2.30;;;2.10;;
12962;SDS011;6546;49.882;8.666;2023-05-07T13:40:17;2.63;;;2.13;;
12962;SDS011;6546;49.882;8.666;2023-05-07T13:42:44;2.77;;;2.20;;
12962;SDS011;6546;49.882;8.666;2023-05-07T13:45:10;2.43;;;2.23;;
12962;SDS011;6546;49.882;8.666;2023-05-07T13:47:39;4.20;;;2.10;;
12962;SDS011;6546;49.882;8.666;2023-05-07T13:50:06;2.20;;;2.00;;
12962;SDS011;6546;49.882;8.666;2023-05-07T13:52:33;2.30;;;2.10;;
12962;SDS011;6546;49.882;8.666;2023-05-07T13:55:01;2.60;;;2.40;;
12962;SDS011;6546;49.882;8.666;2023-05-07T13:57:28;3.20;;;2.00;;
12962;SDS011;6546;49.882;8.666;2023-05-07T13:59:55;2.27;;;2.07;;
12962;SDS011;6546;49.882;8.666;2023-05-07T14:02:21;2.83;;;2.43;;
12962;SDS011;6546;49.882;8.666;2023-05-07T14:04:48;2.27;;;2.10;;
12962;SDS011;6546;49.882;8.666;2023-05-07T14:07:14;2.20;;;2.10;;
12962;SDS011;6546;49.882;8.666;2023-05-07T14:09:41;2.73;;;2.23;;
12962;SDS011;6546;49.882;8.666;2023-05-07T14:12:09;4.17;;;2.50;;
12962;SDS011;6546;49.882;8.666;2023-05-07T14:14:36;2.73;;;2.20;;
12962;SDS011;6546;49.882;8.666;2023-05-07T14:17:02;2.50;;;2.30;;
12962;SDS011;6546;49.882;8.666;2023-05-07T14:19:29;2.33;;;2.13;;
12962;SDS011;6546;49.882;8.666;2023-05-07T14:21:55;2.43;;;2.23;;
12962;SDS011;6546;49.882;8.666;2023-05-07T14:24:23;4.47;;;2.43;;
12962;SDS011;6546;49.882;8.666;2023-05-07T14:26:50;3.77;;;2.47;;
12962;SDS011;6546;49.882;8.666;2023-05-07T14:29:18;2.80;;;2.60;;
12962;SDS011;6546;49.882;8.666;2023-05-07T14:31:44;2.40;;;2.20;;
12962;SDS011;6546;49.882;8.666;2023-05-07T14:34:11;4.47;;;2.60;;
12962;SDS011;6546;49.882;8.666;2023-05-07T14:36:38;2.60;;;2.40;;
12962;SDS011;6546;49.882;8.666;2023-05-07T14:39:04;2.80;;;2.33;;
12962;SDS011;6546;49.882;8.666;2023-05-07T14:41:31;2.90;;;2.40;;
12962;SDS011;6546;49.882;8.666;2023-05-07T14:43:58;3.07;;;2.40;;
12962;SDS011;6546;49.882;8.666;2023-05-07T14:46:26;2.60;;;2.40;;
12962;SDS011;6546;49.882;8.666;2023-05-07T14:48:53;5.23;;;2.30;;
12962;SDS011;6546;49.882;8.666;2023-05-07T14:51:20;2.50;;;2.30;;
12962;SDS011;6546;49.882;8.666;2023-05-07T14:53:46;2.17;;;2.07;;
12962;SDS011;6546;49.882;8.666;2023-05-07T14:56:13;2.17;;;2.00;;
12962;SDS011;6546;49.882;8.666;2023-05-07T14:58:40;2.67;;;2.30;;
12962;SDS011;6546;49.882;8.666;2023-05-07T15:01:06;2.83;;;2.40;;
12962;SDS011;6546;49.882;8.666;2023-05-07T15:03:34;3.05;;;2.30;;
12962;SDS011;6546;49.882;8.666;2023-05-07T15:06:01;3.73;;;2.50;;
12962;SDS011;6546;49.882;8.666;2023-05-07T15:08:28;3.67;;;2.40;;
12962;SDS011;6546;49.882;8.666;2023-05-07T15:10:54;2.80;;;2.60;;
12962;SDS011;6546;49.882;8.666;2023-05-07T15:13:21;5.30;;;2.73;;
12962;SDS011;6546;49.882;8.666;2023-05-07T15:15:48;3.63;;;2.30;;
12962;SDS011;6546;49.882;8.666;2023-05-07T15:18:14;2.70;;;2.50;;
12962;SDS011;6546;49.882;8.666;2023-05-07T15:20:42;4.43;;;4.03;;
12962;SDS011;6546;49.882;8.666;2023-05-07T15:23:09;2.73;;;2.53;;
12962;SDS011;6546;49.882;8.666;2023-05-07T15:25:37;2.77;;;2.50;;
12962;SDS011;6546;49.882;8.666;2023-05-07T15:28:03;2.60;;;2.40;;
12962;SDS011;6546;49.882;8.666;2023-05-07T15:30:30;3.83;;;2.60;;
12962;SDS011;6546;49.882;8.666;2023-05-07T15:32:57;4.80;;;3.10;;
12962;SDS011;6546;49.882;8.666;2023-05-07T15:35:23;2.50;;;2.30;;
12962;SDS011;6546;49.882;8.666;2023-05-07T15:37:52;3.13;;;2.57;;
12962;SDS011;6546;49.882;8.666;2023-05-07T15:40:18;2.80;;;2.57;;
12962;SDS011;6546;49.882;8.666;2023-05-07T15:42:45;2.80;;;2.60;;
12962;SDS011;6546;49.882;8.666;2023-05-07T15:45:12;3.20;;;2.80;;
12962;SDS011;6546;49.882;8.666;2023-05-07T15:47:38;3.90;;;2.83;;
12962;SDS011;6546;49.882;8.666;2023-05-07T15:50:05;6.33;;;2.63;;
12962;SDS011;6546;49.882;8.666;2023-05-07T15:52:32;2.93;;;2.50;;
12962;SDS011;6546;49.882;8.666;2023-05-07T15:55:01;3.70;;;2.97;;
12962;SDS011;6546;49.882;8.666;2023-05-07T15:57:28;3.23;;;2.70;;
12962;SDS011;6546;49.882;8.666;2023-05-07T15:59:56;6.37;;;4.23;;
12962;SDS011;6546;49.882;8.666;2023-05-07T16:02:23;3.73;;;3.30;;
12962;SDS011;6546;49.882;8.666;2023-05-07T16:04:49;5.30;;;4.10;;
12962;SDS011;6546;49.882;8.666;2023-05-07T16:07:16;2.90;;;2.70;;
12962;SDS011;6546;49.882;8.666;2023-05-07T16:09:43;4.17;;;2.77;;
12962;SDS011;6546;49.882;8.666;2023-05-07T16:12:11;4.17;;;3.00;;
12962;SDS011;6546;49.882;8.666;2023-05-07T16:14:38;4.60;;;3.03;;
12962;SDS011;6546;49.882;8.666;2023-05-07T16:17:05;3.23;;;2.93;;
12962;SDS011;6546;49.882;8.666;2023-05-07T16:19:31;3.50;;;3.20;;
12962;SDS011;6546;49.882;8.666;2023-05-07T16:21:58;5.27;;;3.43;;
12962;SDS011;6546;49.882;8.666;2023-05-07T16:24:24;4.03;;;3.13;;
12962;SDS011;6546;49.882;8.666;2023-05-07T16:26:51;6.97;;;3.77;;
12962;SDS011;6546;49.882;8.666;2023-05-07T16:29:19;3.27;;;2.97;;
12962;SDS011;6546;49.882;8.666;2023-05-07T16:31:47;3.97;;;3.30;;